sensor_id;sensor_type;location;lat;lon;timestamp;P1;durP1;ratioP1;P2;durP2;ratioP2
11777;SDS011;5946;51.770;8.548;2024-01-15T00:00:17;68.63;;;33.63;;
11777;SDS011;5946;51.770;8.548;2024-01-15T00:02:43;69.30;;;33.27;;
11777;SDS011;5946;51.770;8.548;2024-01-15T00:05:09;58.53;;;29.20;;
11777;SDS011;5946;51.770;8.548;2024-01-15T00:07:35;62.23;;;31.03;;
11777;SDS011;5946;51.770;8.548;2024-01-15T00:10:01;62.87;;;32.13;;
11777;SDS011;5946;51.770;8.548;2024-01-15T00:12:28;63.63;;;31.60;;
11777;SDS011;5946;51.770;8.548;2024-01-15T00:14:57;72.43;;;34.93;;
11777;SDS011;5946;51.770;8.548;2024-01-15T00:17:23;70.57;;;33.63;;
11777;SDS011;5946;51.770;8.548;2024-01-15T00:19:49;71.63;;;34.53;;
11777;SDS011;5946;51.770;8.548;2024-01-15T00:22:15;63.77;;;32.53;;
11777;SDS011;5946;51.770;8.548;2024-01-15T00:24:42;66.60;;;32.43;;
11777;SDS011;5946;51.770;8.548;2024-01-15T00:27:08;56.83;;;27.97;;
11777;SDS011;5946;51.770;8.548;2024-01-15T00:29:33;65.70;;;31.20;;
11777;SDS011;5946;51.770;8.548;2024-01-15T00:31:59;64.13;;;32.00;;
11777;SDS011;5946;51.770;8.548;2024-01-15T00:34:25;67.07;;;33.03;;
11777;SDS011;5946;51.770;8.548;2024-01-15T00:36:51;70.13;;;34.13;;
11777;SDS011;5946;51.770;8.548;2024-01-15T00:39:18;62.27;;;31.57;;
11777;SDS011;5946;51.770;8.548;2024-01-15T00:41:43;64.70;;;32.23;;
11777;SDS011;5946;51.770;8.548;2024-01-15T00:44:09;61.87;;;31.70;;
11777;SDS011;5946;51.770;8.548;2024-01-15T00:46:45;62.20;;;32.10;;
11777;SDS011;5946;51.770;8.548;2024-01-15T00:49:12;55.57;;;28.93;;
11777;SDS011;5946;51.770;8.548;2024-01-15T00:51:38;61.33;;;30.27;;
11777;SDS011;5946;51.770;8.548;2024-01-15T00:54:04;55.50;;;30.33;;
11777;SDS011;5946;51.770;8.548;2024-01-15T00:56:30;58.53;;;30.07;;
11777;SDS011;5946;51.770;8.548;2024-01-15T00:58:56;60.63;;;29.57;;
11777;SDS011;5946;51.770;8.548;2024-01-15T01:01:22;56.67;;;29.70;;
11777;SDS011;5946;51.770;8.548;2024-01-15T01:03:48;57.37;;;30.03;;
11777;SDS011;5946;51.770;8.548;2024-01-15T01:06:14;59.30;;;30.70;;
11777;SDS011;5946;51.770;8.548;2024-01-15T01:08:40;59.10;;;29.90;;
11777;SDS011;5946;51.770;8.548;2024-01-15T01:11:06;51.53;;;28.40;;
11777;SDS011;5946;51.770;8.548;2024-01-15T01:13:32;52.07;;;27.97;;
11777;SDS011;5946;51.770;8.548;2024-01-15T01:15:58;51.93;;;27.63;;
11777;SDS011;5946;51.770;8.548;2024-01-15T01:18:24;54.17;;;26.20;;
11777;SDS011;5946;51.770;8.548;2024-01-15T01:20:50;52.77;;;29.77;;
11777;SDS011;5946;51.770;8.548;2024-01-15T01:23:16;49.57;;;27.57;;
11777;SDS011;5946;51.770;8.548;2024-01-15T01:25:42;50.17;;;25.63;;
11777;SDS011;5946;51.770;8.548;2024-01-15T01:28:08;50.63;;;26.80;;
11777;SDS011;5946;51.770;8.548;2024-01-15T01:30:34;49.73;;;26.00;;
11777;SDS011;5946;51.770;8.548;2024-01-15T01:33:00;47.07;;;25.23;;
11777;SDS011;5946;51.770;8.548;2024-01-15T01:35:26;45.10;;;24.73;;
11777;SDS011;5946;51.770;8.548;2024-01-15T01:37:52;46.27;;;24.47;;
11777;SDS011;5946;51.770;8.548;2024-01-15T01:40:18;47.73;;;25.17;;
11777;SDS011;5946;51.770;8.548;2024-01-15T01:42:44;43.27;;;24.27;;
11777;SDS011;5946;51.770;8.548;2024-01-15T01:45:10;45.57;;;24.13;;
11777;SDS011;5946;51.770;8.548;2024-01-15T01:47:36;44.97;;;24.33;;
11777;SDS011;5946;51.770;8.548;2024-01-15T01:50:02;45.83;;;25.03;;
11777;SDS011;5946;51.770;8.548;2024-01-15T01:52:29;50.40;;;24.47;;
11777;SDS011;5946;51.770;8.548;2024-01-15T01:54:55;45.13;;;24.87;;
11777;SDS011;5946;51.770;8.548;2024-01-15T01:57:21;44.90;;;24.97;;
11777;SDS011;5946;51.770;8.548;2024-01-15T01:59:47;50.97;;;26.23;;
11777;SDS011;5946;51.770;8.548;2024-01-15T02:02:13;49.87;;;27.10;;
11777;SDS011;5946;51.770;8.548;2024-01-15T02:04:39;51.27;;;25.70;;
11777;SDS011;5946;51.770;8.548;2024-01-15T02:07:05;46.03;;;24.20;;
11777;SDS011;5946;51.770;8.548;2024-01-15T02:09:31;39.27;;;20.97;;
11777;SDS011;5946;51.770;8.548;2024-01-15T02:11:57;49.53;;;23.90;;
11777;SDS011;5946;51.770;8.548;2024-01-15T02:14:23;40.53;;;22.63;;
11777;SDS011;5946;51.770;8.548;2024-01-15T02:16:49;45.87;;;22.90;;
11777;SDS011;5946;51.770;8.548;2024-01-15T02:19:15;46.00;;;22.07;;
11777;SDS011;5946;51.770;8.548;2024-01-15T02:21:42;40.40;;;22.93;;
11777;SDS011;5946;51.770;8.548;2024-01-15T02:24:08;44.70;;;22.70;;
11777;SDS011;5946;51.770;8.548;2024-01-15T02:26:34;41.80;;;23.60;;
11777;SDS011;5946;51.770;8.548;2024-01-15T02:29:01;41.30;;;23.77;;
11777;SDS011;5946;51.770;8.548;2024-01-15T02:31:27;47.07;;;24.63;;
11777;SDS011;5946;51.770;8.548;2024-01-15T02:33:53;46.67;;;24.73;;
11777;SDS011;5946;51.770;8.548;2024-01-15T02:36:19;46.70;;;26.13;;
11777;SDS011;5946;51.770;8.548;2024-01-15T02:38:45;47.43;;;26.40;;
11777;SDS011;5946;51.770;8.548;2024-01-15T02:41:11;50.47;;;26.20;;
11777;SDS011;5946;51.770;8.548;2024-01-15T02:43:39;43.13;;;23.47;;
11777;SDS011;5946;51.770;8.548;2024-01-15T02:46:05;49.17;;;26.13;;
11777;SDS011;5946;51.770;8.548;2024-01-15T02:48:31;45.07;;;23.30;;
11777;SDS011;5946;51.770;8.548;2024-01-15T02:50:59;36.13;;;18.77;;
11777;SDS011;5946;51.770;8.548;2024-01-15T02:53:25;44.57;;;21.57;;
11777;SDS011;5946;51.770;8.548;2024-01-15T02:55:51;47.30;;;22.73;;
11777;SDS011;5946;51.770;8.548;2024-01-15T02:58:17;50.97;;;24.43;;
11777;SDS011;5946;51.770;8.548;2024-01-15T03:00:43;50.33;;;23.70;;
11777;SDS011;5946;51.770;8.548;2024-01-15T03:03:09;42.03;;;24.60;;
11777;SDS011;5946;51.770;8.548;2024-01-15T03:05:35;54.47;;;26.60;;
11777;SDS011;5946;51.770;8.548;2024-01-15T03:08:01;48.60;;;22.97;;
11777;SDS011;5946;51.770;8.548;2024-01-15T03:10:27;49.60;;;23.07;;
11777;SDS011;5946;51.770;8.548;2024-01-15T03:12:53;48.30;;;23.93;;
11777;SDS011;5946;51.770;8.548;2024-01-15T03:15:19;45.53;;;23.37;;
11777;SDS011;5946;51.770;8.548;2024-01-15T03:17:45;46.53;;;24.40;;
11777;SDS011;5946;51.770;8.548;2024-01-15T03:20:11;46.10;;;23.27;;
11777;SDS011;5946;51.770;8.548;2024-01-15T03:22:37;42.73;;;23.43;;
11777;SDS011;5946;51.770;8.548;2024-01-15T03:25:03;48.40;;;24.17;;
11777;SDS011;5946;51.770;8.548;2024-01-15T03:27:29;44.47;;;23.00;;
11777;SDS011;5946;51.770;8.548;2024-01-15T03:29:55;48.20;;;22.63;;
11777;SDS011;5946;51.770;8.548;2024-01-15T03:32:21;39.77;;;20.73;;
11777;SDS011;5946;51.770;8.548;2024-01-15T03:34:47;47.43;;;22.77;;
11777;SDS011;5946;51.770;8.548;2024-01-15T03:37:13;39.43;;;20.67;;
11777;SDS011;5946;51.770;8.548;2024-01-15T03:39:39;39.70;;;22.13;;
11777;SDS011;5946;51.770;8.548;2024-01-15T03:42:05;41.10;;;23.07;;
11777;SDS011;5946;51.770;8.548;2024-01-15T03:44:32;46.73;;;23.23;;
11777;SDS011;5946;51.770;8.548;2024-01-15T03:46:58;39.70;;;20.77;;
11777;SDS011;5946;51.770;8.548;2024-01-15T03:49:24;37.57;;;20.23;;
11777;SDS011;5946;51.770;8.548;2024-01-15T03:51:50;45.83;;;22.10;;
11777;SDS011;5946;51.770;8.548;2024-01-15T03:54:15;45.27;;;23.43;;
11777;SDS011;5946;51.770;8.548;2024-01-15T03:56:41;40.13;;;20.73;;
11777;SDS011;5946;51.770;8.548;2024-01-15T03:59:07;52.20;;;23.43;;
11777;SDS011;5946;51.770;8.548;2024-01-15T04:01:33;45.13;;;22.67;;
11777;SDS011;5946;51.770;8.548;2024-01-15T04:03:59;41.97;;;21.20;;
11777;SDS011;5946;51.770;8.548;2024-01-15T04:06:25;43.27;;;22.40;;
11777;SDS011;5946;51.770;8.548;2024-01-15T04:08:51;38.57;;;20.47;;
11777;SDS011;5946;51.770;8.548;2024-01-15T04:11:17;35.90;;;20.67;;
11777;SDS011;5946;51.770;8.548;2024-01-15T04:13:43;40.97;;;21.60;;
11777;SDS011;5946;51.770;8.548;2024-01-15T04:16:09;45.53;;;21.80;;
11777;SDS011;5946;51.770;8.548;2024-01-15T04:18:35;37.90;;;21.33;;
11777;SDS011;5946;51.770;8.548;2024-01-15T04:21:01;43.10;;;20.37;;
11777;SDS011;5946;51.770;8.548;2024-01-15T04:23:29;39.70;;;21.90;;
11777;SDS011;5946;51.770;8.548;2024-01-15T04:25:55;41.90;;;23.60;;
11777;SDS011;5946;51.770;8.548;2024-01-15T04:28:21;42.67;;;22.73;;
11777;SDS011;5946;51.770;8.548;2024-01-15T04:30:47;39.17;;;22.13;;
11777;SDS011;5946;51.770;8.548;2024-01-15T04:33:13;42.83;;;22.57;;
11777;SDS011;5946;51.770;8.548;2024-01-15T04:35:38;42.83;;;22.37;;
11777;SDS011;5946;51.770;8.548;2024-01-15T04:38:04;43.87;;;21.33;;
11777;SDS011;5946;51.770;8.548;2024-01-15T04:40:30;42.00;;;21.90;;
11777;SDS011;5946;51.770;8.548;2024-01-15T04:42:56;48.27;;;23.57;;
11777;SDS011;5946;51.770;8.548;2024-01-15T04:45:22;46.33;;;23.07;;
11777;SDS011;5946;51.770;8.548;2024-01-15T04:47:53;41.17;;;22.43;;
11777;SDS011;5946;51.770;8.548;2024-01-15T04:50:19;40.33;;;22.03;;
11777;SDS011;5946;51.770;8.548;2024-01-15T04:52:45;40.07;;;22.87;;
11777;SDS011;5946;51.770;8.548;2024-01-15T04:55:11;38.10;;;20.70;;
11777;SDS011;5946;51.770;8.548;2024-01-15T04:57:36;42.00;;;21.87;;
11777;SDS011;5946;51.770;8.548;2024-01-15T05:00:02;42.03;;;23.87;;
11777;SDS011;5946;51.770;8.548;2024-01-15T05:02:30;43.53;;;22.10;;
11777;SDS011;5946;51.770;8.548;2024-01-15T05:04:55;40.93;;;21.57;;
11777;SDS011;5946;51.770;8.548;2024-01-15T05:07:21;41.70;;;22.83;;
11777;SDS011;5946;51.770;8.548;2024-01-15T05:09:47;43.97;;;22.17;;
11777;SDS011;5946;51.770;8.548;2024-01-15T05:12:13;42.33;;;22.60;;
11777;SDS011;5946;51.770;8.548;2024-01-15T05:14:39;41.17;;;21.67;;
11777;SDS011;5946;51.770;8.548;2024-01-15T05:17:05;40.87;;;22.83;;
11777;SDS011;5946;51.770;8.548;2024-01-15T05:19:31;38.10;;;21.03;;
11777;SDS011;5946;51.770;8.548;2024-01-15T05:21:57;40.07;;;22.53;;
11777;SDS011;5946;51.770;8.548;2024-01-15T05:24:23;38.43;;;21.83;;
11777;SDS011;5946;51.770;8.548;2024-01-15T05:26:51;40.43;;;20.60;;
11777;SDS011;5946;51.770;8.548;2024-01-15T05:29:17;37.30;;;20.63;;
11777;SDS011;5946;51.770;8.548;2024-01-15T05:31:43;39.23;;;21.50;;
11777;SDS011;5946;51.770;8.548;2024-01-15T05:34:09;41.73;;;20.63;;
11777;SDS011;5946;51.770;8.548;2024-01-15T05:36:35;38.80;;;20.10;;
11777;SDS011;5946;51.770;8.548;2024-01-15T05:39:01;36.17;;;19.33;;
11777;SDS011;5946;51.770;8.548;2024-01-15T05:41:28;35.70;;;18.90;;
11777;SDS011;5946;51.770;8.548;2024-01-15T05:43:53;38.83;;;20.27;;
11777;SDS011;5946;51.770;8.548;2024-01-15T05:46:19;40.30;;;20.80;;
11777;SDS011;5946;51.770;8.548;2024-01-15T05:48:45;34.30;;;17.90;;
11777;SDS011;5946;51.770;8.548;2024-01-15T05:51:12;41.37;;;21.47;;
11777;SDS011;5946;51.770;8.548;2024-01-15T05:53:38;36.03;;;21.67;;
11777;SDS011;5946;51.770;8.548;2024-01-15T05:56:06;39.67;;;21.63;;
11777;SDS011;5946;51.770;8.548;2024-01-15T05:58:32;41.13;;;22.90;;
11777;SDS011;5946;51.770;8.548;2024-01-15T06:00:58;50.83;;;23.93;;
11777;SDS011;5946;51.770;8.548;2024-01-15T06:03:24;53.67;;;25.73;;
11777;SDS011;5946;51.770;8.548;2024-01-15T06:05:50;48.40;;;25.50;;
11777;SDS011;5946;51.770;8.548;2024-01-15T06:08:16;49.07;;;26.53;;
11777;SDS011;5946;51.770;8.548;2024-01-15T06:10:42;54.80;;;26.20;;
11777;SDS011;5946;51.770;8.548;2024-01-15T06:13:08;54.27;;;27.03;;
11777;SDS011;5946;51.770;8.548;2024-01-15T06:15:34;57.67;;;26.27;;
11777;SDS011;5946;51.770;8.548;2024-01-15T06:18:00;56.70;;;29.57;;
11777;SDS011;5946;51.770;8.548;2024-01-15T06:20:26;50.90;;;28.43;;
11777;SDS011;5946;51.770;8.548;2024-01-15T06:22:52;57.37;;;27.80;;
11777;SDS011;5946;51.770;8.548;2024-01-15T06:25:18;49.93;;;27.00;;
11777;SDS011;5946;51.770;8.548;2024-01-15T06:27:44;50.53;;;27.03;;
11777;SDS011;5946;51.770;8.548;2024-01-15T06:30:10;61.37;;;27.83;;
11777;SDS011;5946;51.770;8.548;2024-01-15T06:32:36;63.70;;;29.53;;
11777;SDS011;5946;51.770;8.548;2024-01-15T06:35:02;53.13;;;28.57;;
11777;SDS011;5946;51.770;8.548;2024-01-15T06:37:29;57.83;;;29.70;;
11777;SDS011;5946;51.770;8.548;2024-01-15T06:39:55;62.00;;;28.77;;
11777;SDS011;5946;51.770;8.548;2024-01-15T06:42:21;53.63;;;26.67;;
11777;SDS011;5946;51.770;8.548;2024-01-15T06:44:47;47.83;;;25.83;;
11777;SDS011;5946;51.770;8.548;2024-01-15T06:47:13;56.13;;;28.77;;
11777;SDS011;5946;51.770;8.548;2024-01-15T06:49:39;51.53;;;28.90;;
11777;SDS011;5946;51.770;8.548;2024-01-15T06:52:05;47.57;;;24.53;;
11777;SDS011;5946;51.770;8.548;2024-01-15T06:54:31;52.97;;;26.33;;
11777;SDS011;5946;51.770;8.548;2024-01-15T06:56:57;54.93;;;26.23;;
11777;SDS011;5946;51.770;8.548;2024-01-15T06:59:23;48.83;;;25.47;;
11777;SDS011;5946;51.770;8.548;2024-01-15T07:01:49;43.00;;;26.23;;
11777;SDS011;5946;51.770;8.548;2024-01-15T07:04:15;50.13;;;27.50;;
11777;SDS011;5946;51.770;8.548;2024-01-15T07:06:41;49.80;;;28.63;;
11777;SDS011;5946;51.770;8.548;2024-01-15T07:09:07;53.97;;;29.60;;
11777;SDS011;5946;51.770;8.548;2024-01-15T07:11:34;57.50;;;27.37;;
11777;SDS011;5946;51.770;8.548;2024-01-15T07:14:00;56.20;;;30.43;;
11777;SDS011;5946;51.770;8.548;2024-01-15T07:16:26;54.47;;;28.93;;
11777;SDS011;5946;51.770;8.548;2024-01-15T07:18:52;55.53;;;29.23;;
11777;SDS011;5946;51.770;8.548;2024-01-15T07:21:18;55.43;;;28.27;;
11777;SDS011;5946;51.770;8.548;2024-01-15T07:23:44;52.10;;;26.83;;
11777;SDS011;5946;51.770;8.548;2024-01-15T07:26:10;56.37;;;28.37;;
11777;SDS011;5946;51.770;8.548;2024-01-15T07:28:36;50.23;;;26.47;;
11777;SDS011;5946;51.770;8.548;2024-01-15T07:31:02;45.50;;;27.47;;
11777;SDS011;5946;51.770;8.548;2024-01-15T07:33:28;49.33;;;26.37;;
11777;SDS011;5946;51.770;8.548;2024-01-15T07:35:54;43.63;;;24.03;;
11777;SDS011;5946;51.770;8.548;2024-01-15T07:38:20;53.23;;;27.37;;
11777;SDS011;5946;51.770;8.548;2024-01-15T07:40:47;49.40;;;28.17;;
11777;SDS011;5946;51.770;8.548;2024-01-15T07:43:14;44.73;;;23.47;;
11777;SDS011;5946;51.770;8.548;2024-01-15T07:45:40;48.17;;;25.10;;
11777;SDS011;5946;51.770;8.548;2024-01-15T07:48:06;53.70;;;27.73;;
11777;SDS011;5946;51.770;8.548;2024-01-15T07:50:32;54.90;;;25.80;;
11777;SDS011;5946;51.770;8.548;2024-01-15T07:52:58;60.37;;;29.83;;
11777;SDS011;5946;51.770;8.548;2024-01-15T07:55:24;50.70;;;26.63;;
11777;SDS011;5946;51.770;8.548;2024-01-15T07:57:50;61.23;;;30.67;;
11777;SDS011;5946;51.770;8.548;2024-01-15T08:00:17;51.67;;;28.03;;
11777;SDS011;5946;51.770;8.548;2024-01-15T08:02:43;55.03;;;26.90;;
11777;SDS011;5946;51.770;8.548;2024-01-15T08:05:09;55.00;;;28.07;;
11777;SDS011;5946;51.770;8.548;2024-01-15T08:07:35;61.30;;;30.23;;
11777;SDS011;5946;51.770;8.548;2024-01-15T08:10:01;65.63;;;33.87;;
11777;SDS011;5946;51.770;8.548;2024-01-15T08:12:28;64.03;;;31.00;;
11777;SDS011;5946;51.770;8.548;2024-01-15T08:14:54;71.53;;;32.97;;
11777;SDS011;5946;51.770;8.548;2024-01-15T08:17:20;64.37;;;33.43;;
11777;SDS011;5946;51.770;8.548;2024-01-15T08:19:46;68.57;;;34.53;;
11777;SDS011;5946;51.770;8.548;2024-01-15T08:22:12;69.47;;;32.30;;
11777;SDS011;5946;51.770;8.548;2024-01-15T08:24:37;76.40;;;37.23;;
11777;SDS011;5946;51.770;8.548;2024-01-15T08:27:04;74.83;;;35.93;;
11777;SDS011;5946;51.770;8.548;2024-01-15T08:29:30;79.17;;;32.97;;
11777;SDS011;5946;51.770;8.548;2024-01-15T08:31:58;71.80;;;35.00;;
11777;SDS011;5946;51.770;8.548;2024-01-15T08:34:24;71.87;;;32.97;;
11777;SDS011;5946;51.770;8.548;2024-01-15T08:36:50;63.67;;;32.73;;
11777;SDS011;5946;51.770;8.548;2024-01-15T08:39:16;56.40;;;30.97;;
11777;SDS011;5946;51.770;8.548;2024-01-15T08:41:44;69.33;;;35.07;;
11777;SDS011;5946;51.770;8.548;2024-01-15T08:44:11;76.37;;;35.47;;
11777;SDS011;5946;51.770;8.548;2024-01-15T08:46:37;67.77;;;35.07;;
11777;SDS011;5946;51.770;8.548;2024-01-15T08:49:03;66.30;;;33.40;;
11777;SDS011;5946;51.770;8.548;2024-01-15T08:51:29;69.63;;;36.40;;
11777;SDS011;5946;51.770;8.548;2024-01-15T08:53:58;79.07;;;38.30;;
11777;SDS011;5946;51.770;8.548;2024-01-15T08:56:24;76.87;;;38.33;;
11777;SDS011;5946;51.770;8.548;2024-01-15T08:58:52;75.40;;;36.13;;
11777;SDS011;5946;51.770;8.548;2024-01-15T09:01:18;81.97;;;37.33;;
11777;SDS011;5946;51.770;8.548;2024-01-15T09:03:44;74.80;;;34.43;;
11777;SDS011;5946;51.770;8.548;2024-01-15T09:06:11;78.37;;;36.33;;
11777;SDS011;5946;51.770;8.548;2024-01-15T09:08:37;76.83;;;36.80;;
11777;SDS011;5946;51.770;8.548;2024-01-15T09:11:03;73.30;;;34.23;;
11777;SDS011;5946;51.770;8.548;2024-01-15T09:13:29;77.83;;;36.33;;
11777;SDS011;5946;51.770;8.548;2024-01-15T09:15:55;89.23;;;38.47;;
11777;SDS011;5946;51.770;8.548;2024-01-15T09:18:21;76.70;;;37.83;;
11777;SDS011;5946;51.770;8.548;2024-01-15T09:20:47;77.43;;;36.97;;
11777;SDS011;5946;51.770;8.548;2024-01-15T09:23:13;87.00;;;39.37;;
11777;SDS011;5946;51.770;8.548;2024-01-15T09:25:39;78.97;;;36.73;;
11777;SDS011;5946;51.770;8.548;2024-01-15T09:28:05;84.17;;;39.00;;
11777;SDS011;5946;51.770;8.548;2024-01-15T09:30:31;83.57;;;36.40;;
11777;SDS011;5946;51.770;8.548;2024-01-15T09:32:58;85.60;;;36.87;;
11777;SDS011;5946;51.770;8.548;2024-01-15T09:35:23;83.27;;;37.03;;
11777;SDS011;5946;51.770;8.548;2024-01-15T09:37:50;70.80;;;33.67;;
11777;SDS011;5946;51.770;8.548;2024-01-15T09:40:15;71.10;;;32.57;;
11777;SDS011;5946;51.770;8.548;2024-01-15T09:42:42;63.73;;;31.70;;
11777;SDS011;5946;51.770;8.548;2024-01-15T09:45:08;70.10;;;31.90;;
11777;SDS011;5946;51.770;8.548;2024-01-15T09:47:34;53.63;;;26.93;;
11777;SDS011;5946;51.770;8.548;2024-01-15T09:50:00;60.37;;;28.53;;
11777;SDS011;5946;51.770;8.548;2024-01-15T09:52:28;55.80;;;28.43;;
11777;SDS011;5946;51.770;8.548;2024-01-15T09:54:55;51.57;;;26.83;;
11777;SDS011;5946;51.770;8.548;2024-01-15T09:57:21;48.73;;;23.67;;
11777;SDS011;5946;51.770;8.548;2024-01-15T09:59:47;49.53;;;25.33;;
11777;SDS011;5946;51.770;8.548;2024-01-15T10:02:13;48.90;;;25.03;;
11777;SDS011;5946;51.770;8.548;2024-01-15T10:04:43;48.00;;;24.77;;
11777;SDS011;5946;51.770;8.548;2024-01-15T10:07:09;45.33;;;24.70;;
11777;SDS011;5946;51.770;8.548;2024-01-15T10:09:37;45.23;;;23.57;;
11777;SDS011;5946;51.770;8.548;2024-01-15T10:12:03;42.53;;;22.87;;
11777;SDS011;5946;51.770;8.548;2024-01-15T10:14:29;38.30;;;20.47;;
11777;SDS011;5946;51.770;8.548;2024-01-15T10:16:55;40.20;;;19.87;;
11777;SDS011;5946;51.770;8.548;2024-01-15T10:19:22;32.90;;;18.43;;
11777;SDS011;5946;51.770;8.548;2024-01-15T10:21:48;35.07;;;19.47;;
11777;SDS011;5946;51.770;8.548;2024-01-15T10:24:14;33.50;;;18.20;;
11777;SDS011;5946;51.770;8.548;2024-01-15T10:26:40;28.57;;;15.83;;
11777;SDS011;5946;51.770;8.548;2024-01-15T10:29:06;29.60;;;17.67;;
11777;SDS011;5946;51.770;8.548;2024-01-15T10:31:32;29.00;;;14.93;;
11777;SDS011;5946;51.770;8.548;2024-01-15T10:34:11;30.57;;;16.43;;
11777;SDS011;5946;51.770;8.548;2024-01-15T10:36:40;26.30;;;15.23;;
11777;SDS011;5946;51.770;8.548;2024-01-15T10:39:06;23.90;;;12.80;;
11777;SDS011;5946;51.770;8.548;2024-01-15T10:41:33;23.07;;;12.87;;
11777;SDS011;5946;51.770;8.548;2024-01-15T10:43:59;21.37;;;12.93;;
11777;SDS011;5946;51.770;8.548;2024-01-15T10:46:25;19.87;;;11.17;;
11777;SDS011;5946;51.770;8.548;2024-01-15T10:48:51;21.97;;;12.07;;
11777;SDS011;5946;51.770;8.548;2024-01-15T10:51:17;20.97;;;11.87;;
11777;SDS011;5946;51.770;8.548;2024-01-15T10:53:43;21.67;;;12.27;;
11777;SDS011;5946;51.770;8.548;2024-01-15T10:56:10;17.03;;;9.60;;
11777;SDS011;5946;51.770;8.548;2024-01-15T10:58:37;16.47;;;10.70;;
11777;SDS011;5946;51.770;8.548;2024-01-15T11:01:05;17.70;;;10.80;;
11777;SDS011;5946;51.770;8.548;2024-01-15T11:03:31;30.67;;;15.73;;
11777;SDS011;5946;51.770;8.548;2024-01-15T11:05:57;28.70;;;15.80;;
11777;SDS011;5946;51.770;8.548;2024-01-15T11:08:25;19.50;;;11.70;;
11777;SDS011;5946;51.770;8.548;2024-01-15T11:10:51;21.50;;;11.53;;
11777;SDS011;5946;51.770;8.548;2024-01-15T11:13:21;15.40;;;8.87;;
11777;SDS011;5946;51.770;8.548;2024-01-15T11:16:00;13.93;;;9.33;;
11777;SDS011;5946;51.770;8.548;2024-01-15T11:18:30;20.70;;;10.33;;
11777;SDS011;5946;51.770;8.548;2024-01-15T11:23:45;15.43;;;9.00;;
11777;SDS011;5946;51.770;8.548;2024-01-15T11:28:53;16.23;;;10.47;;
11777;SDS011;5946;51.770;8.548;2024-01-15T11:31:19;35.00;;;17.03;;
11777;SDS011;5946;51.770;8.548;2024-01-15T11:33:51;26.93;;;15.10;;
11777;SDS011;5946;51.770;8.548;2024-01-15T11:36:17;22.83;;;10.80;;
11777;SDS011;5946;51.770;8.548;2024-01-15T11:38:43;10.67;;;7.47;;
11777;SDS011;5946;51.770;8.548;2024-01-15T11:41:14;13.67;;;8.43;;
11777;SDS011;5946;51.770;8.548;2024-01-15T11:43:41;14.67;;;8.27;;
11777;SDS011;5946;51.770;8.548;2024-01-15T11:46:10;16.27;;;9.70;;
11777;SDS011;5946;51.770;8.548;2024-01-15T11:48:43;13.90;;;8.17;;
11777;SDS011;5946;51.770;8.548;2024-01-15T11:51:10;12.73;;;8.17;;
11777;SDS011;5946;51.770;8.548;2024-01-15T11:53:43;12.97;;;8.03;;
11777;SDS011;5946;51.770;8.548;2024-01-15T11:56:16;14.10;;;7.60;;
11777;SDS011;5946;51.770;8.548;2024-01-15T11:58:42;11.80;;;6.93;;
11777;SDS011;5946;51.770;8.548;2024-01-15T12:01:10;10.37;;;5.20;;
11777;SDS011;5946;51.770;8.548;2024-01-15T12:03:36;11.77;;;6.77;;
11777;SDS011;5946;51.770;8.548;2024-01-15T12:06:05;7.63;;;5.33;;
11777;SDS011;5946;51.770;8.548;2024-01-15T12:08:31;9.07;;;5.90;;
11777;SDS011;5946;51.770;8.548;2024-01-15T12:10:57;10.37;;;5.03;;
11777;SDS011;5946;51.770;8.548;2024-01-15T12:13:23;13.43;;;5.90;;
11777;SDS011;5946;51.770;8.548;2024-01-15T12:15:49;11.97;;;5.43;;
11777;SDS011;5946;51.770;8.548;2024-01-15T12:18:16;12.70;;;6.17;;
11777;SDS011;5946;51.770;8.548;2024-01-15T12:20:43;9.73;;;5.83;;
11777;SDS011;5946;51.770;8.548;2024-01-15T12:23:11;8.57;;;5.13;;
11777;SDS011;5946;51.770;8.548;2024-01-15T12:25:38;7.17;;;4.77;;
11777;SDS011;5946;51.770;8.548;2024-01-15T12:28:05;9.37;;;4.90;;
11777;SDS011;5946;51.770;8.548;2024-01-15T12:30:32;9.83;;;4.07;;
11777;SDS011;5946;51.770;8.548;2024-01-15T12:33:02;6.67;;;4.37;;
11777;SDS011;5946;51.770;8.548;2024-01-15T12:35:31;7.17;;;4.40;;
11777;SDS011;5946;51.770;8.548;2024-01-15T12:37:59;10.83;;;4.37;;
11777;SDS011;5946;51.770;8.548;2024-01-15T12:40:27;8.97;;;3.47;;
11777;SDS011;5946;51.770;8.548;2024-01-15T12:42:53;9.10;;;4.63;;
11777;SDS011;5946;51.770;8.548;2024-01-15T12:45:19;8.00;;;4.67;;
11777;SDS011;5946;51.770;8.548;2024-01-15T12:47:45;8.50;;;4.27;;
11777;SDS011;5946;51.770;8.548;2024-01-15T12:50:11;9.90;;;4.57;;
11777;SDS011;5946;51.770;8.548;2024-01-15T12:52:39;7.07;;;4.43;;
11777;SDS011;5946;51.770;8.548;2024-01-15T12:55:07;8.37;;;4.87;;
11777;SDS011;5946;51.770;8.548;2024-01-15T12:57:36;8.90;;;4.37;;
11777;SDS011;5946;51.770;8.548;2024-01-15T13:00:03;9.90;;;4.50;;
11777;SDS011;5946;51.770;8.548;2024-01-15T13:02:32;12.10;;;4.80;;
11777;SDS011;5946;51.770;8.548;2024-01-15T13:04:58;10.77;;;4.60;;
11777;SDS011;5946;51.770;8.548;2024-01-15T13:07:25;11.00;;;4.77;;
11777;SDS011;5946;51.770;8.548;2024-01-15T13:09:51;9.43;;;4.60;;
11777;SDS011;5946;51.770;8.548;2024-01-15T13:12:18;7.77;;;4.37;;
11777;SDS011;5946;51.770;8.548;2024-01-15T13:14:45;8.00;;;5.53;;
11777;SDS011;5946;51.770;8.548;2024-01-15T13:17:12;8.63;;;5.47;;
11777;SDS011;5946;51.770;8.548;2024-01-15T13:19:39;7.40;;;4.40;;
11777;SDS011;5946;51.770;8.548;2024-01-15T13:22:05;9.93;;;4.03;;
11777;SDS011;5946;51.770;8.548;2024-01-15T13:24:34;9.37;;;4.47;;
11777;SDS011;5946;51.770;8.548;2024-01-15T13:27:01;6.93;;;4.03;;
11777;SDS011;5946;51.770;8.548;2024-01-15T13:29:27;12.53;;;7.83;;
11777;SDS011;5946;51.770;8.548;2024-01-15T13:31:53;10.13;;;5.67;;
11777;SDS011;5946;51.770;8.548;2024-01-15T13:34:20;11.07;;;5.60;;
11777;SDS011;5946;51.770;8.548;2024-01-15T13:36:46;15.60;;;10.83;;
11777;SDS011;5946;51.770;8.548;2024-01-15T13:39:12;11.47;;;5.50;;
11777;SDS011;5946;51.770;8.548;2024-01-15T13:41:38;8.77;;;4.70;;
11777;SDS011;5946;51.770;8.548;2024-01-15T13:44:04;10.90;;;4.10;;
11777;SDS011;5946;51.770;8.548;2024-01-15T13:46:30;9.50;;;4.60;;
11777;SDS011;5946;51.770;8.548;2024-01-15T13:48:56;9.87;;;5.13;;
11777;SDS011;5946;51.770;8.548;2024-01-15T13:51:22;12.03;;;4.70;;
11777;SDS011;5946;51.770;8.548;2024-01-15T13:53:48;9.60;;;5.80;;
11777;SDS011;5946;51.770;8.548;2024-01-15T13:56:15;10.60;;;4.13;;
11777;SDS011;5946;51.770;8.548;2024-01-15T13:58:41;9.37;;;5.17;;
11777;SDS011;5946;51.770;8.548;2024-01-15T14:01:07;16.03;;;6.73;;
11777;SDS011;5946;51.770;8.548;2024-01-15T14:03:33;8.30;;;4.27;;
11777;SDS011;5946;51.770;8.548;2024-01-15T14:06:00;9.20;;;4.67;;
11777;SDS011;5946;51.770;8.548;2024-01-15T14:08:28;9.37;;;4.93;;
11777;SDS011;5946;51.770;8.548;2024-01-15T14:10:54;8.80;;;5.10;;
11777;SDS011;5946;51.770;8.548;2024-01-15T14:13:22;12.00;;;5.23;;
11777;SDS011;5946;51.770;8.548;2024-01-15T14:15:47;13.53;;;5.97;;
11777;SDS011;5946;51.770;8.548;2024-01-15T14:18:15;9.50;;;5.40;;
11777;SDS011;5946;51.770;8.548;2024-01-15T14:20:41;10.20;;;5.50;;
11777;SDS011;5946;51.770;8.548;2024-01-15T14:23:07;9.73;;;5.57;;
11777;SDS011;5946;51.770;8.548;2024-01-15T14:25:33;10.83;;;6.10;;
11777;SDS011;5946;51.770;8.548;2024-01-15T14:27:59;7.10;;;4.77;;
11777;SDS011;5946;51.770;8.548;2024-01-15T14:30:25;8.77;;;5.47;;
11777;SDS011;5946;51.770;8.548;2024-01-15T14:32:51;8.80;;;5.30;;
11777;SDS011;5946;51.770;8.548;2024-01-15T14:35:17;8.90;;;4.80;;
11777;SDS011;5946;51.770;8.548;2024-01-15T14:37:43;9.77;;;5.33;;